sensor_id;sensor_type;location;lat;lon;timestamp;noise_LAeq;noise_LA_min;noise_LA_max;noise_LA01;noise_LA95
58197;Laerm;43999;51.660;5.616;2023-04-19T00:02:23;46.38;38.05;67.33;;
58197;Laerm;43999;51.660;5.616;2023-04-19T00:04:52;50.32;37.88;70.49;;
58197;Laerm;43999;51.660;5.616;2023-04-19T00:07:19;55.84;38.21;79.73;;
58197;Laerm;43999;51.660;5.616;2023-04-19T00:09:48;51.59;37.88;74.09;;
58197;Laerm;43999;51.660;5.616;2023-04-19T00:12:16;50.79;37.52;76.12;;
58197;Laerm;43999;51.660;5.616;2023-04-19T00:14:44;51.59;36.69;72.72;;
58197;Laerm;43999;51.660;5.616;2023-04-19T00:17:13;60.86;37.12;77.87;;
58197;Laerm;43999;51.660;5.616;2023-04-19T00:19:40;51.93;37.32;72.59;;
58197;Laerm;43999;51.660;5.616;2023-04-19T00:22:08;48.54;36.69;70.06;;
58197;Laerm;43999;51.660;5.616;2023-04-19T00:24:35;53.50;38.37;73.26;;
58197;Laerm;43999;51.660;5.616;2023-04-19T00:27:02;49.77;37.70;71.38;;
58197;Laerm;43999;51.660;5.616;2023-04-19T00:29:30;48.33;37.88;75.99;;
58197;Laerm;43999;51.660;5.616;2023-04-19T00:31:58;54.93;37.70;77.84;;
58197;Laerm;43999;51.660;5.616;2023-04-19T00:34:25;47.68;37.12;67.52;;
58197;Laerm;43999;51.660;5.616;2023-04-19T00:36:55;46.99;38.05;68.95;;
58197;Laerm;43999;51.660;5.616;2023-04-19T00:39:24;43.45;37.32;64.05;;
58197;Laerm;43999;51.660;5.616;2023-04-19T00:41:52;47.47;37.52;69.70;;
58197;Laerm;43999;51.660;5.616;2023-04-19T00:44:20;42.80;37.70;63.39;;
58197;Laerm;43999;51.660;5.616;2023-04-19T00:46:50;44.74;37.70;63.70;;
58197;Laerm;43999;51.660;5.616;2023-04-19T00:49:19;45.98;36.91;68.51;;
58197;Laerm;43999;51.660;5.616;2023-04-19T00:51:50;50.01;36.20;73.81;;
58197;Laerm;43999;51.660;5.616;2023-04-19T00:54:19;55.63;37.32;73.84;;
58197;Laerm;43999;51.660;5.616;2023-04-19T00:56:49;45.73;37.12;66.81;;
58197;Laerm;43999;51.660;5.616;2023-04-19T00:59:18;50.68;37.32;72.18;;
58197;Laerm;43999;51.660;5.616;2023-04-19T01:01:45;42.79;37.52;66.36;;
58197;Laerm;43999;51.660;5.616;2023-04-19T01:04:12;52.58;36.69;79.10;;
58197;Laerm;43999;51.660;5.616;2023-04-19T01:06:41;51.99;37.70;73.89;;
58197;Laerm;43999;51.660;5.616;2023-04-19T01:09:10;56.24;38.81;76.55;;
58197;Laerm;43999;51.660;5.616;2023-04-19T01:11:40;55.73;37.52;78.04;;
58197;Laerm;43999;51.660;5.616;2023-04-19T01:14:09;52.42;37.52;80.10;;
58197;Laerm;43999;51.660;5.616;2023-04-19T01:16:38;50.22;38.05;74.61;;
58197;Laerm;43999;51.660;5.616;2023-04-19T01:19:06;48.79;37.88;73.07;;
58197;Laerm;43999;51.660;5.616;2023-04-19T01:21:36;43.60;36.20;62.04;;
58197;Laerm;43999;51.660;5.616;2023-04-19T01:24:06;57.82;38.52;81.14;;
58197;Laerm;43999;51.660;5.616;2023-04-19T01:26:33;51.18;37.12;71.15;;
58197;Laerm;43999;51.660;5.616;2023-04-19T01:29:01;43.55;38.05;67.69;;
58197;Laerm;43999;51.660;5.616;2023-04-19T01:31:29;52.37;38.05;74.23;;
58197;Laerm;43999;51.660;5.616;2023-04-19T01:33:56;53.18;38.95;75.59;;
58197;Laerm;43999;51.660;5.616;2023-04-19T01:36:24;56.82;36.91;80.00;;
58197;Laerm;43999;51.660;5.616;2023-04-19T01:38:52;51.17;37.70;77.01;;
58197;Laerm;43999;51.660;5.616;2023-04-19T01:41:19;56.43;37.52;77.52;;
58197;Laerm;43999;51.660;5.616;2023-04-19T01:43:49;53.59;37.52;75.65;;
58197;Laerm;43999;51.660;5.616;2023-04-19T01:46:16;52.17;37.70;76.25;;
58197;Laerm;43999;51.660;5.616;2023-04-19T01:48:45;43.74;38.21;60.68;;
58197;Laerm;43999;51.660;5.616;2023-04-19T01:51:12;54.75;37.88;79.53;;
58197;Laerm;43999;51.660;5.616;2023-04-19T01:53:40;49.01;37.70;74.58;;
58197;Laerm;43999;51.660;5.616;2023-04-19T01:56:08;51.10;38.37;76.96;;
58197;Laerm;43999;51.660;5.616;2023-04-19T01:58:37;54.60;38.52;77.65;;
58197;Laerm;43999;51.660;5.616;2023-04-19T02:01:05;48.87;37.70;72.40;;
58197;Laerm;43999;51.660;5.616;2023-04-19T02:03:34;46.03;37.12;66.04;;
58197;Laerm;43999;51.660;5.616;2023-04-19T02:06:02;42.56;37.88;60.14;;
58197;Laerm;43999;51.660;5.616;2023-04-19T02:08:29;43.76;37.52;61.26;;
58197;Laerm;43999;51.660;5.616;2023-04-19T02:10:57;44.13;38.37;58.85;;
58197;Laerm;43999;51.660;5.616;2023-04-19T02:13:24;52.58;37.12;66.71;;
58197;Laerm;43999;51.660;5.616;2023-04-19T02:15:51;43.16;37.70;53.35;;
58197;Laerm;43999;51.660;5.616;2023-04-19T02:18:19;53.71;37.88;68.38;;
58197;Laerm;43999;51.660;5.616;2023-04-19T02:20:46;53.77;38.21;69.23;;
58197;Laerm;43999;51.660;5.616;2023-04-19T02:23:14;46.27;37.70;64.54;;
58197;Laerm;43999;51.660;5.616;2023-04-19T02:25:41;53.28;39.70;70.33;;
58197;Laerm;43999;51.660;5.616;2023-04-19T02:28:08;49.15;37.52;69.60;;
58197;Laerm;43999;51.660;5.616;2023-04-19T02:30:36;50.74;38.95;66.85;;
58197;Laerm;43999;51.660;5.616;2023-04-19T02:33:04;49.11;38.67;69.25;;
58197;Laerm;43999;51.660;5.616;2023-04-19T02:35:33;57.62;39.21;78.29;;
58197;Laerm;43999;51.660;5.616;2023-04-19T02:38:02;56.32;38.37;75.78;;
58197;Laerm;43999;51.660;5.616;2023-04-19T02:40:30;55.57;37.88;77.06;;
58197;Laerm;43999;51.660;5.616;2023-04-19T02:42:58;52.11;38.05;73.25;;
58197;Laerm;43999;51.660;5.616;2023-04-19T02:45:26;50.66;38.81;68.78;;
58197;Laerm;43999;51.660;5.616;2023-04-19T02:47:54;46.54;38.21;75.12;;
58197;Laerm;43999;51.660;5.616;2023-04-19T02:50:22;53.61;38.67;69.28;;
58197;Laerm;43999;51.660;5.616;2023-04-19T02:52:50;54.15;37.70;77.31;;
58197;Laerm;43999;51.660;5.616;2023-04-19T02:55:19;58.00;40.43;76.25;;
58197;Laerm;43999;51.660;5.616;2023-04-19T02:57:52;52.75;38.95;74.58;;
58197;Laerm;43999;51.660;5.616;2023-04-19T03:00:19;52.52;38.52;75.72;;
58197;Laerm;43999;51.660;5.616;2023-04-19T03:03:00;53.53;40.88;75.03;;
58197;Laerm;43999;51.660;5.616;2023-04-19T03:05:31;48.32;39.08;64.62;;
58197;Laerm;43999;51.660;5.616;2023-04-19T03:07:59;50.33;39.58;71.03;;
58197;Laerm;43999;51.660;5.616;2023-04-19T03:10:26;51.80;39.92;76.88;;
58197;Laerm;43999;51.660;5.616;2023-04-19T03:12:54;51.00;39.58;69.38;;
58197;Laerm;43999;51.660;5.616;2023-04-19T03:15:21;54.03;40.79;71.64;;
58197;Laerm;43999;51.660;5.616;2023-04-19T03:17:49;49.82;39.34;71.18;;
58197;Laerm;43999;51.660;5.616;2023-04-19T03:20:18;56.70;41.53;77.46;;
58197;Laerm;43999;51.660;5.616;2023-04-19T03:22:47;56.63;42.35;73.50;;
58197;Laerm;43999;51.660;5.616;2023-04-19T03:25:15;52.94;39.34;72.30;;
58197;Laerm;43999;51.660;5.616;2023-04-19T03:27:47;56.45;40.18;73.00;;
58197;Laerm;43999;51.660;5.616;2023-04-19T03:30:20;53.86;41.06;67.91;;
58197;Laerm;43999;51.660;5.616;2023-04-19T03:32:48;54.70;41.30;74.64;;
58197;Laerm;43999;51.660;5.616;2023-04-19T03:35:16;54.22;42.22;68.46;;
58197;Laerm;43999;51.660;5.616;2023-04-19T03:37:43;51.32;39.92;66.23;;
58197;Laerm;43999;51.660;5.616;2023-04-19T03:40:11;47.73;40.53;64.55;;
58197;Laerm;43999;51.660;5.616;2023-04-19T03:42:39;49.15;40.62;63.90;;
58197;Laerm;43999;51.660;5.616;2023-04-19T03:45:13;54.92;40.43;69.89;;
58197;Laerm;43999;51.660;5.616;2023-04-19T03:47:45;51.86;40.98;70.03;;
58197;Laerm;43999;51.660;5.616;2023-04-19T03:50:12;53.98;41.22;72.38;;
58197;Laerm;43999;51.660;5.616;2023-04-19T03:52:43;53.56;42.76;74.96;;
58197;Laerm;43999;51.660;5.616;2023-04-19T03:55:12;54.78;42.29;67.88;;
58197;Laerm;43999;51.660;5.616;2023-04-19T03:57:40;53.67;42.65;73.17;;
58197;Laerm;43999;51.660;5.616;2023-04-19T04:00:17;58.28;41.38;78.82;;
58197;Laerm;43999;51.660;5.616;2023-04-19T04:02:52;51.86;40.89;68.88;;
58197;Laerm;43999;51.660;5.616;2023-04-19T04:05:20;59.52;43.81;78.27;;
58197;Laerm;43999;51.660;5.616;2023-04-19T04:07:48;57.39;43.63;78.07;;
58197;Laerm;43999;51.660;5.616;2023-04-19T04:10:17;56.17;42.03;72.93;;
58197;Laerm;43999;51.660;5.616;2023-04-19T04:12:46;59.72;44.07;78.99;;
58197;Laerm;43999;51.660;5.616;2023-04-19T04:15:19;59.35;43.81;71.71;;
58197;Laerm;43999;51.660;5.616;2023-04-19T04:17:51;57.55;42.47;77.18;;
58197;Laerm;43999;51.660;5.616;2023-04-19T04:20:19;56.72;42.76;78.41;;
58197;Laerm;43999;51.660;5.616;2023-04-19T04:22:48;63.62;45.83;79.79;;
58197;Laerm;43999;51.660;5.616;2023-04-19T04:25:17;63.44;42.30;83.49;;
58197;Laerm;43999;51.660;5.616;2023-04-19T04:27:50;58.76;43.86;77.06;;
58197;Laerm;43999;51.660;5.616;2023-04-19T04:30:26;61.24;44.58;77.22;;
58197;Laerm;43999;51.660;5.616;2023-04-19T04:32:56;63.42;45.42;80.79;;
58197;Laerm;43999;51.660;5.616;2023-04-19T04:35:27;59.35;44.69;73.59;;
58197;Laerm;43999;51.660;5.616;2023-04-19T04:38:04;61.06;43.05;81.78;;
58197;Laerm;43999;51.660;5.616;2023-04-19T04:40:53;65.19;47.84;82.99;;
58197;Laerm;43999;51.660;5.616;2023-04-19T04:43:24;58.66;43.90;71.98;;
58197;Laerm;43999;51.660;5.616;2023-04-19T04:45:56;64.42;44.69;79.95;;
58197;Laerm;43999;51.660;5.616;2023-04-19T04:48:28;58.20;44.97;71.02;;
58197;Laerm;43999;51.660;5.616;2023-04-19T04:50:57;57.93;48.12;67.48;;
58197;Laerm;43999;51.660;5.616;2023-04-19T04:53:26;58.54;44.39;69.71;;
58197;Laerm;43999;51.660;5.616;2023-04-19T04:55:54;58.78;44.76;76.03;;
58197;Laerm;43999;51.660;5.616;2023-04-19T04:58:21;60.95;45.99;76.95;;
58197;Laerm;43999;51.660;5.616;2023-04-19T05:01:00;60.44;44.03;85.91;;
58197;Laerm;43999;51.660;5.616;2023-04-19T05:03:31;60.98;44.94;77.04;;
58197;Laerm;43999;51.660;5.616;2023-04-19T05:06:03;58.95;45.14;68.97;;
58197;Laerm;43999;51.660;5.616;2023-04-19T05:08:30;58.52;46.84;71.38;;
58197;Laerm;43999;51.660;5.616;2023-04-19T05:11:11;63.65;50.16;76.53;;
58197;Laerm;43999;51.660;5.616;2023-04-19T05:13:38;60.50;46.33;74.19;;
58197;Laerm;43999;51.660;5.616;2023-04-19T05:16:08;61.81;46.43;77.93;;
58197;Laerm;43999;51.660;5.616;2023-04-19T05:18:36;58.50;46.69;71.91;;
58197;Laerm;43999;51.660;5.616;2023-04-19T05:21:24;61.46;48.91;72.80;;
58197;Laerm;43999;51.660;5.616;2023-04-19T05:23:55;61.67;49.03;78.03;;
58197;Laerm;43999;51.660;5.616;2023-04-19T05:26:23;63.16;47.36;79.47;;
58197;Laerm;43999;51.660;5.616;2023-04-19T05:28:52;61.51;47.26;73.52;;
58197;Laerm;43999;51.660;5.616;2023-04-19T05:31:43;65.76;51.39;77.95;;
58197;Laerm;43999;51.660;5.616;2023-04-19T05:34:17;61.91;51.45;70.89;;
58197;Laerm;43999;51.660;5.616;2023-04-19T05:36:49;61.48;49.95;76.69;;
58197;Laerm;43999;51.660;5.616;2023-04-19T05:39:16;66.08;50.06;78.67;;
58197;Laerm;43999;51.660;5.616;2023-04-19T05:41:44;61.87;47.59;81.16;;
58197;Laerm;43999;51.660;5.616;2023-04-19T05:44:12;63.21;49.10;75.77;;
58197;Laerm;43999;51.660;5.616;2023-04-19T05:46:40;63.26;46.84;78.58;;
58197;Laerm;43999;51.660;5.616;2023-04-19T05:49:10;68.18;50.15;86.84;;
58197;Laerm;43999;51.660;5.616;2023-04-19T05:52:02;63.88;50.78;83.67;;
58197;Laerm;43999;51.660;5.616;2023-04-19T05:54:37;65.40;48.49;84.57;;
58197;Laerm;43999;51.660;5.616;2023-04-19T05:57:18;61.98;49.96;78.76;;
58197;Laerm;43999;51.660;5.616;2023-04-19T05:59:49;64.90;48.21;86.72;;
58197;Laerm;43999;51.660;5.616;2023-04-19T06:02:20;66.29;52.26;84.44;;
58197;Laerm;43999;51.660;5.616;2023-04-19T06:04:49;65.39;48.95;80.69;;
58197;Laerm;43999;51.660;5.616;2023-04-19T06:07:18;63.16;48.87;77.47;;
58197;Laerm;43999;51.660;5.616;2023-04-19T06:10:03;65.87;50.09;80.58;;
58197;Laerm;43999;51.660;5.616;2023-04-19T06:12:31;67.65;55.04;86.75;;
58197;Laerm;43999;51.660;5.616;2023-04-19T06:15:07;64.92;51.17;85.31;;
58197;Laerm;43999;51.660;5.616;2023-04-19T06:17:36;63.27;51.06;76.84;;
58197;Laerm;43999;51.660;5.616;2023-04-19T06:20:04;63.77;53.27;76.79;;
58197;Laerm;43999;51.660;5.616;2023-04-19T06:22:34;65.97;50.17;88.74;;
58197;Laerm;43999;51.660;5.616;2023-04-19T06:25:07;68.14;50.45;90.58;;
58197;Laerm;43999;51.660;5.616;2023-04-19T06:27:35;67.89;53.70;85.57;;
58197;Laerm;43999;51.660;5.616;2023-04-19T06:30:03;67.73;53.00;88.83;;
58197;Laerm;43999;51.660;5.616;2023-04-19T06:32:30;63.12;49.50;82.31;;
58197;Laerm;43999;51.660;5.616;2023-04-19T06:34:58;64.91;50.91;83.52;;
58197;Laerm;43999;51.660;5.616;2023-04-19T06:37:25;63.78;51.45;81.53;;
58197;Laerm;43999;51.660;5.616;2023-04-19T06:39:53;64.68;53.85;81.34;;
58197;Laerm;43999;51.660;5.616;2023-04-19T06:42:22;66.56;52.70;86.54;;
58197;Laerm;43999;51.660;5.616;2023-04-19T06:44:53;63.98;52.54;82.57;;
58197;Laerm;43999;51.660;5.616;2023-04-19T06:47:24;66.00;52.72;81.67;;
58197;Laerm;43999;51.660;5.616;2023-04-19T06:49:51;64.33;51.43;82.76;;
58197;Laerm;43999;51.660;5.616;2023-04-19T06:52:19;64.06;49.10;81.92;;
58197;Laerm;43999;51.660;5.616;2023-04-19T06:54:51;62.55;49.69;78.72;;
58197;Laerm;43999;51.660;5.616;2023-04-19T06:57:18;65.85;53.76;83.65;;
58197;Laerm;43999;51.660;5.616;2023-04-19T06:59:46;68.73;51.87;88.09;;
58197;Laerm;43999;51.660;5.616;2023-04-19T07:02:14;67.73;51.96;87.82;;
58197;Laerm;43999;51.660;5.616;2023-04-19T07:04:42;67.67;50.43;87.68;;
58197;Laerm;43999;51.660;5.616;2023-04-19T07:07:11;66.15;48.02;84.62;;
58197;Laerm;43999;51.660;5.616;2023-04-19T07:09:40;69.09;50.25;90.12;;
58197;Laerm;43999;51.660;5.616;2023-04-19T07:12:07;67.14;50.59;90.04;;
58197;Laerm;43999;51.660;5.616;2023-04-19T07:14:36;64.50;50.63;81.14;;
58197;Laerm;43999;51.660;5.616;2023-04-19T07:17:04;63.73;55.17;79.11;;
58197;Laerm;43999;51.660;5.616;2023-04-19T07:19:32;66.54;47.40;78.48;;
58197;Laerm;43999;51.660;5.616;2023-04-19T07:22:02;65.34;46.35;87.14;;
58197;Laerm;43999;51.660;5.616;2023-04-19T07:24:30;69.71;53.26;91.13;;
58197;Laerm;43999;51.660;5.616;2023-04-19T07:26:59;68.25;50.43;89.96;;
58197;Laerm;43999;51.660;5.616;2023-04-19T07:29:27;67.82;52.42;84.95;;
58197;Laerm;43999;51.660;5.616;2023-04-19T07:31:56;63.24;49.85;82.18;;
58197;Laerm;43999;51.660;5.616;2023-04-19T07:34:26;63.21;52.09;78.03;;
58197;Laerm;43999;51.660;5.616;2023-04-19T07:36:55;67.83;53.52;83.10;;
58197;Laerm;43999;51.660;5.616;2023-04-19T07:39:22;68.16;57.20;89.23;;
58197;Laerm;43999;51.660;5.616;2023-04-19T07:41:50;63.81;50.99;82.02;;
58197;Laerm;43999;51.660;5.616;2023-04-19T07:44:17;67.48;50.68;88.30;;
58197;Laerm;43999;51.660;5.616;2023-04-19T07:46:45;67.27;54.27;83.43;;
58197;Laerm;43999;51.660;5.616;2023-04-19T07:49:16;70.63;56.22;89.29;;
58197;Laerm;43999;51.660;5.616;2023-04-19T07:51:44;74.01;53.10;94.69;;
58197;Laerm;43999;51.660;5.616;2023-04-19T07:54:17;66.70;54.11;81.07;;
58197;Laerm;43999;51.660;5.616;2023-04-19T07:56:47;67.41;53.31;88.07;;
58197;Laerm;43999;51.660;5.616;2023-04-19T07:59:16;65.00;53.25;81.32;;
58197;Laerm;43999;51.660;5.616;2023-04-19T08:01:50;65.92;53.49;92.84;;
58197;Laerm;43999;51.660;5.616;2023-04-19T08:04:19;67.41;51.18;84.13;;
58197;Laerm;43999;51.660;5.616;2023-04-19T08:06:50;64.87;52.56;86.08;;
58197;Laerm;43999;51.660;5.616;2023-04-19T08:09:21;67.15;51.96;86.10;;
58197;Laerm;43999;51.660;5.616;2023-04-19T08:11:49;69.64;57.52;88.20;;
58197;Laerm;43999;51.660;5.616;2023-04-19T08:14:18;65.47;51.74;77.94;;
58197;Laerm;43999;51.660;5.616;2023-04-19T08:17:07;61.99;50.33;78.81;;
58197;Laerm;43999;51.660;5.616;2023-04-19T08:19:52;64.18;54.33;76.34;;
58197;Laerm;43999;51.660;5.616;2023-04-19T08:22:20;63.63;51.55;81.60;;
58197;Laerm;43999;51.660;5.616;2023-04-19T08:24:52;66.23;52.70;86.73;;
58197;Laerm;43999;51.660;5.616;2023-04-19T08:27:21;66.66;51.47;87.56;;
58197;Laerm;43999;51.660;5.616;2023-04-19T08:30:04;71.83;53.56;80.63;;
58197;Laerm;43999;51.660;5.616;2023-04-19T08:32:36;70.26;56.67;89.35;;
58197;Laerm;43999;51.660;5.616;2023-04-19T08:35:05;71.90;51.08;97.45;;
58197;Laerm;43999;51.660;5.616;2023-04-19T08:37:35;64.52;51.21;84.72;;
58197;Laerm;43999;51.660;5.616;2023-04-19T08:40:03;66.37;50.34;87.75;;
58197;Laerm;43999;51.660;5.616;2023-04-19T08:42:33;67.52;51.39;86.31;;
58197;Laerm;43999;51.660;5.616;2023-04-19T08:45:05;65.23;53.83;83.41;;
58197;Laerm;43999;51.660;5.616;2023-04-19T08:47:39;64.23;48.73;84.79;;
58197;Laerm;43999;51.660;5.616;2023-04-19T08:50:25;65.75;49.89;86.08;;
58197;Laerm;43999;51.660;5.616;2023-04-19T08:53:04;66.80;49.90;87.65;;
58197;Laerm;43999;51.660;5.616;2023-04-19T08:55:40;64.59;51.10;78.96;;
58197;Laerm;43999;51.660;5.616;2023-04-19T08:58:28;68.63;55.38;81.46;;
58197;Laerm;43999;51.660;5.616;2023-04-19T09:01:05;66.73;50.92;89.28;;
58197;Laerm;43999;51.660;5.616;2023-04-19T09:03:34;64.83;47.76;86.69;;
58197;Laerm;43999;51.660;5.616;2023-04-19T09:06:18;66.54;51.68;84.35;;
58197;Laerm;43999;51.660;5.616;2023-04-19T09:08:46;68.49;53.35;92.26;;
58197;Laerm;43999;51.660;5.616;2023-04-19T09:11:15;69.83;51.19;92.17;;
58197;Laerm;43999;51.660;5.616;2023-04-19T09:13:43;76.04;51.11;100.90;;
58197;Laerm;43999;51.660;5.616;2023-04-19T09:16:24;69.06;51.67;87.13;;
58197;Laerm;43999;51.660;5.616;2023-04-19T09:18:55;66.83;50.90;86.87;;
58197;Laerm;43999;51.660;5.616;2023-04-19T09:21:43;64.67;51.72;81.17;;
58197;Laerm;43999;51.660;5.616;2023-04-19T09:24:16;64.47;52.06;82.53;;
58197;Laerm;43999;51.660;5.616;2023-04-19T09:26:54;67.08;54.00;93.80;;
58197;Laerm;43999;51.660;5.616;2023-04-19T09:29:24;69.71;53.27;92.54;;
58197;Laerm;43999;51.660;5.616;2023-04-19T09:31:59;67.25;50.16;87.76;;
58197;Laerm;43999;51.660;5.616;2023-04-19T09:34:29;68.56;56.25;84.33;;
58197;Laerm;43999;51.660;5.616;2023-04-19T09:37:12;65.51;50.88;88.63;;
58197;Laerm;43999;51.660;5.616;2023-04-19T09:40:00;67.50;53.29;84.65;;
58197;Laerm;43999;51.660;5.616;2023-04-19T09:42:46;66.53;51.19;87.26;;
58197;Laerm;43999;51.660;5.616;2023-04-19T09:45:17;65.12;52.29;79.38;;
58197;Laerm;43999;51.660;5.616;2023-04-19T09:48:06;68.09;51.42;92.57;;
58197;Laerm;43999;51.660;5.616;2023-04-19T09:50:57;65.71;55.77;82.73;;
58197;Laerm;43999;51.660;5.616;2023-04-19T09:53:32;67.70;53.31;87.18;;
58197;Laerm;43999;51.660;5.616;2023-04-19T09:56:06;68.83;53.57;90.11;;
58197;Laerm;43999;51.660;5.616;2023-04-19T09:58:33;66.13;54.61;83.80;;
58197;Laerm;43999;51.660;5.616;2023-04-19T10:01:19;68.76;53.30;91.77;;
58197;Laerm;43999;51.660;5.616;2023-04-19T10:03:51;63.63;50.76;87.14;;
58197;Laerm;43999;51.660;5.616;2023-04-19T10:06:21;66.22;53.75;87.49;;
58197;Laerm;43999;51.660;5.616;2023-04-19T10:08:54;67.81;53.37;88.39;;
58197;Laerm;43999;51.660;5.616;2023-04-19T10:11:24;67.27;51.41;83.68;;
58197;Laerm;43999;51.660;5.616;2023-04-19T10:14:20;65.48;48.81;84.15;;
58197;Laerm;43999;51.660;5.616;2023-04-19T10:16:50;69.23;51.95;89.32;;
58197;Laerm;43999;51.660;5.616;2023-04-19T10:19:20;66.32;51.64;86.07;;
58197;Laerm;43999;51.660;5.616;2023-04-19T10:21:50;68.17;51.69;88.83;;
58197;Laerm;43999;51.660;5.616;2023-04-19T10:24:18;70.63;54.29;91.66;;
58197;Laerm;43999;51.660;5.616;2023-04-19T10:27:14;70.17;56.26;89.15;;
58197;Laerm;43999;51.660;5.616;2023-04-19T10:30:01;65.92;52.09;84.18;;
58197;Laerm;43999;51.660;5.616;2023-04-19T10:32:42;66.96;49.74;92.05;;
58197;Laerm;43999;51.660;5.616;2023-04-19T10:35:26;62.42;50.16;82.07;;
58197;Laerm;43999;51.660;5.616;2023-04-19T10:38:14;71.45;54.96;92.46;;
58197;Laerm;43999;51.660;5.616;2023-04-19T10:41:10;71.40;52.74;93.75;;
58197;Laerm;43999;51.660;5.616;2023-04-19T10:49:01;66.85;49.81;88.18;;
58197;Laerm;43999;51.660;5.616;2023-04-19T10:51:46;64.30;51.80;81.11;;
58197;Laerm;43999;51.660;5.616;2023-04-19T10:54:31;66.99;53.03;87.02;;
58197;Laerm;43999;51.660;5.616;2023-04-19T10:57:08;68.38;53.60;83.44;;
58197;Laerm;43999;51.660;5.616;2023-04-19T10:59:39;70.51;56.45;90.48;;
58197;Laerm;43999;51.660;5.616;2023-04-19T11:07:19;63.56;52.76;78.03;;
58197;Laerm;43999;51.660;5.616;2023-04-19T11:09:49;65.96;53.47;82.50;;
58197;Laerm;43999;51.660;5.616;2023-04-19T11:12:20;63.90;50.17;79.80;;
58197;Laerm;43999;51.660;5.616;2023-04-19T11:14:58;66.71;51.84;88.10;;
58197;Laerm;43999;51.660;5.616;2023-04-19T11:17:30;71.56;55.91;92.30;;
58197;Laerm;43999;51.660;5.616;2023-04-19T11:20:08;71.70;54.60;94.15;;
58197;Laerm;43999;51.660;5.616;2023-04-19T11:22:44;64.37;46.05;80.34;;
58197;Laerm;43999;51.660;5.616;2023-04-19T11:25:19;68.95;51.43;93.79;;
58197;Laerm;43999;51.660;5.616;2023-04-19T11:27:51;65.43;52.12;85.26;;
58197;Laerm;43999;51.660;5.616;2023-04-19T11:30:28;66.82;53.02;84.69;;
58197;Laerm;43999;51.660;5.616;2023-04-19T11:32:57;65.34;50.15;83.86;;
58197;Laerm;43999;51.660;5.616;2023-04-19T11:35:28;70.19;52.78;91.94;;
58197;Laerm;43999;51.660;5.616;2023-04-19T11:37:58;66.64;53.41;85.34;;
58197;Laerm;43999;51.660;5.616;2023-04-19T11:40:26;66.40;53.24;83.68;;
58197;Laerm;43999;51.660;5.616;2023-04-19T11:43:03;70.69;51.40;87.16;;
58197;Laerm;43999;51.660;5.616;2023-04-19T11:45:34;68.54;53.64;88.25;;
58197;Laerm;43999;51.660;5.616;2023-04-19T11:48:15;64.43;54.20;84.98;;
58197;Laerm;43999;51.660;5.616;2023-04-19T11:50:44;70.62;55.37;92.28;;
58197;Laerm;43999;51.660;5.616;2023-04-19T11:56:07;63.05;52.24;78.15;;
58197;Laerm;43999;51.660;5.616;2023-04-19T11:58:56;65.21;54.93;86.12;;
58197;Laerm;43999;51.660;5.616;2023-04-19T12:01:24;64.34;52.09;76.43;;
58197;Laerm;43999;51.660;5.616;2023-04-19T12:03:54;63.09;51.91;79.71;;
58197;Laerm;43999;51.660;5.616;2023-04-19T12:06:30;66.77;50.01;85.24;;
58197;Laerm;43999;51.660;5.616;2023-04-19T12:08:58;65.00;54.33;83.14;;
58197;Laerm;43999;51.660;5.616;2023-04-19T12:11:45;65.05;54.03;82.57;;
58197;Laerm;43999;51.660;5.616;2023-04-19T12:14:21;64.05;53.34;83.81;;
58197;Laerm;43999;51.660;5.616;2023-04-19T12:17:12;64.76;52.79;83.18;;
58197;Laerm;43999;51.660;5.616;2023-04-19T12:19:47;68.77;51.57;89.08;;
58197;Laerm;43999;51.660;5.616;2023-04-19T12:22:18;67.10;53.90;87.31;;
58197;Laerm;43999;51.660;5.616;2023-04-19T12:24:51;67.60;53.81;85.92;;
58197;Laerm;43999;51.660;5.616;2023-04-19T12:27:23;68.89;54.05;89.88;;
58197;Laerm;43999;51.660;5.616;2023-04-19T12:29:51;68.93;54.85;89.91;;
58197;Laerm;43999;51.660;5.616;2023-04-19T12:32:19;73.06;52.24;93.16;;
58197;Laerm;43999;51.660;5.616;2023-04-19T12:34:47;71.92;53.36;93.07;;
58197;Laerm;43999;51.660;5.616;2023-04-19T12:37:14;73.01;52.11;94.23;;
58197;Laerm;43999;51.660;5.616;2023-04-19T12:39:41;68.74;52.38;88.60;;
58197;Laerm;43999;51.660;5.616;2023-04-19T12:42:09;62.80;51.02;78.98;;
58197;Laerm;43999;51.660;5.616;2023-04-19T12:44:36;66.82;52.97;88.82;;
58197;Laerm;43999;51.660;5.616;2023-04-19T12:47:03;63.81;48.98;84.75;;
58197;Laerm;43999;51.660;5.616;2023-04-19T12:49:32;66.84;53.01;86.21;;
58197;Laerm;43999;51.660;5.616;2023-04-19T12:52:02;68.78;52.52;90.75;;
58197;Laerm;43999;51.660;5.616;2023-04-19T12:54:30;66.51;50.16;85.95;;
58197;Laerm;43999;51.660;5.616;2023-04-19T12:56:58;66.73;50.87;84.68;;
58197;Laerm;43999;51.660;5.616;2023-04-19T12:59:27;66.31;53.60;83.47;;
58197;Laerm;43999;51.660;5.616;2023-04-19T13:01:54;75.83;54.51;99.28;;
58197;Laerm;43999;51.660;5.616;2023-04-19T13:04:22;68.63;52.39;92.33;;
58197;Laerm;43999;51.660;5.616;2023-04-19T13:06:50;70.67;52.97;94.33;;
58197;Laerm;43999;51.660;5.616;2023-04-19T13:09:17;68.77;58.03;81.73;;
58197;Laerm;43999;51.660;5.616;2023-04-19T13:11:45;64.97;56.71;84.04;;
58197;Laerm;43999;51.660;5.616;2023-04-19T13:14:12;66.63;52.59;87.34;;
58197;Laerm;43999;51.660;5.616;2023-04-19T13:16:40;66.08;54.40;83.63;;
58197;Laerm;43999;51.660;5.616;2023-04-19T13:19:12;66.03;54.97;82.21;;
58197;Laerm;43999;51.660;5.616;2023-04-19T13:21:41;66.94;52.84;82.69;;
58197;Laerm;43999;51.660;5.616;2023-04-19T13:24:08;70.75;53.69;91.84;;
58197;Laerm;43999;51.660;5.616;2023-04-19T13:26:37;66.51;54.84;83.45;;
58197;Laerm;43999;51.660;5.616;2023-04-19T13:29:11;68.82;53.58;92.03;;
58197;Laerm;43999;51.660;5.616;2023-04-19T13:31:39;69.25;53.63;90.44;;
58197;Laerm;43999;51.660;5.616;2023-04-19T13:34:06;61.84;55.60;78.14;;
58197;Laerm;43999;51.660;5.616;2023-04-19T13:36:34;65.49;52.31;83.31;;
58197;Laerm;43999;51.660;5.616;2023-04-19T13:39:03;69.37;54.11;94.35;;
58197;Laerm;43999;51.660;5.616;2023-04-19T13:41:34;71.92;56.00;96.04;;
58197;Laerm;43999;51.660;5.616;2023-04-19T13:44:03;69.48;54.15;90.50;;
58197;Laerm;43999;51.660;5.616;2023-04-19T13:46:30;64.67;52.84;83.44;;
58197;Laerm;43999;51.660;5.616;2023-04-19T13:48:59;66.83;53.69;84.21;;
58197;Laerm;43999;51.660;5.616;2023-04-19T13:51:29;66.17;52.58;86.60;;
58197;Laerm;43999;51.660;5.616;2023-04-19T13:54:14;67.59;52.63;87.32;;
58197;Laerm;43999;51.660;5.616;2023-04-19T13:56:44;69.21;55.60;91.73;;
58197;Laerm;43999;51.660;5.616;2023-04-19T13:59:11;69.86;53.38;91.40;;
58197;Laerm;43999;51.660;5.616;2023-04-19T14:01:41;67.32;55.15;88.18;;
58197;Laerm;43999;51.660;5.616;2023-04-19T14:04:08;65.78;54.00;84.91;;
58197;Laerm;43999;51.660;5.616;2023-04-19T14:06:37;70.42;51.91;89.10;;
58197;Laerm;43999;51.660;5.616;2023-04-19T14:09:04;64.71;52.75;82.18;;
58197;Laerm;43999;51.660;5.616;2023-04-19T14:11:35;68.76;52.45;91.49;;
58197;Laerm;43999;51.660;5.616;2023-04-19T14:14:04;64.12;54.02;81.43;;
58197;Laerm;43999;51.660;5.616;2023-04-19T14:16:32;69.36;54.13;90.54;;
58197;Laerm;43999;51.660;5.616;2023-04-19T14:18:59;66.42;55.86;88.16;;
58197;Laerm;43999;51.660;5.616;2023-04-19T14:21:28;70.83;54.82;87.66;;